sensor_id;sensor_type;location;lat;lon;timestamp;pressure;altitude;pressure_sealevel;temperature;humidity
75699;BME280;64313;51.018;13.742;2024-01-15T00:02:16;97798.84;;;1.75;66.12
75699;BME280;64313;51.018;13.742;2024-01-15T00:04:42;97795.41;;;1.75;66.62
75699;BME280;64313;51.018;13.742;2024-01-15T00:07:08;97789.34;;;1.74;66.39
75699;BME280;64313;51.018;13.742;2024-01-15T00:09:34;97795.59;;;1.73;67.02
75699;BME280;64313;51.018;13.742;2024-01-15T00:12:00;97799.22;;;1.72;66.81
75699;BME280;64313;51.018;13.742;2024-01-15T00:14:25;97792.38;;;1.71;67.43
75699;BME280;64313;51.018;13.742;2024-01-15T00:16:51;97801.25;;;1.70;67.50
75699;BME280;64313;51.018;13.742;2024-01-15T00:19:19;97798.84;;;1.69;67.53
75699;BME280;64313;51.018;13.742;2024-01-15T00:21:45;97800.81;;;1.67;68.25
75699;BME280;64313;51.018;13.742;2024-01-15T00:24:10;97793.97;;;1.66;67.96
75699;BME280;64313;51.018;13.742;2024-01-15T00:26:35;97790.53;;;1.65;67.75
75699;BME280;64313;51.018;13.742;2024-01-15T00:29:02;97794.97;;;1.65;67.68
75699;BME280;64313;51.018;13.742;2024-01-15T00:31:28;97797.59;;;1.65;67.10
75699;BME280;64313;51.018;13.742;2024-01-15T00:33:54;97791.75;;;1.62;67.74
75699;BME280;64313;51.018;13.742;2024-01-15T00:36:20;97787.28;;;1.63;67.96
75699;BME280;64313;51.018;13.742;2024-01-15T00:38:45;97784.88;;;1.61;67.60
75699;BME280;64313;51.018;13.742;2024-01-15T00:41:12;97791.09;;;1.60;67.53
75699;BME280;64313;51.018;13.742;2024-01-15T00:43:38;97786.66;;;1.61;68.18
75699;BME280;64313;51.018;13.742;2024-01-15T00:46:03;97787.88;;;1.58;67.43
75699;BME280;64313;51.018;13.742;2024-01-15T00:48:29;97798.38;;;1.58;67.89
75699;BME280;64313;51.018;13.742;2024-01-15T00:50:54;97785.47;;;1.57;67.72
75699;BME280;64313;51.018;13.742;2024-01-15T00:53:20;97780.19;;;1.57;67.83
75699;BME280;64313;51.018;13.742;2024-01-15T00:55:47;97783.84;;;1.56;67.65
75699;BME280;64313;51.018;13.742;2024-01-15T00:58:12;97769.69;;;1.57;67.96
75699;BME280;64313;51.018;13.742;2024-01-15T01:00:38;97763.63;;;1.56;67.01
75699;BME280;64313;51.018;13.742;2024-01-15T01:03:03;97764.66;;;1.55;67.25
75699;BME280;64313;51.018;13.742;2024-01-15T01:05:28;97769.91;;;1.55;66.93
75699;BME280;64313;51.018;13.742;2024-01-15T01:07:54;97767.06;;;1.57;67.08
75699;BME280;64313;51.018;13.742;2024-01-15T01:10:19;97766.25;;;1.56;67.38
75699;BME280;64313;51.018;13.742;2024-01-15T01:12:44;97741.81;;;1.56;67.11
75699;BME280;64313;51.018;13.742;2024-01-15T01:15:10;97735.75;;;1.55;66.77
75699;BME280;64313;51.018;13.742;2024-01-15T01:17:35;97744.44;;;1.56;67.19
75699;BME280;64313;51.018;13.742;2024-01-15T01:20:01;97735.75;;;1.55;67.28
75699;BME280;64313;51.018;13.742;2024-01-15T01:22:29;97749.88;;;1.54;66.98
75699;BME280;64313;51.018;13.742;2024-01-15T01:24:54;97747.44;;;1.53;67.55
75699;BME280;64313;51.018;13.742;2024-01-15T01:27:19;97724.81;;;1.52;66.88
75699;BME280;64313;51.018;13.742;2024-01-15T01:29:45;97723.00;;;1.52;67.06
75699;BME280;64313;51.018;13.742;2024-01-15T01:32:10;97730.28;;;1.50;67.19
75699;BME280;64313;51.018;13.742;2024-01-15T01:34:40;97730.28;;;1.50;67.25
75699;BME280;64313;51.018;13.742;2024-01-15T01:37:06;97716.34;;;1.50;67.08
75699;BME280;64313;51.018;13.742;2024-01-15T01:39:32;97731.28;;;1.49;67.12
75699;BME280;64313;51.018;13.742;2024-01-15T01:41:57;97708.03;;;1.46;66.71
75699;BME280;64313;51.018;13.742;2024-01-15T01:44:23;97715.69;;;1.48;66.96
75699;BME280;64313;51.018;13.742;2024-01-15T01:46:48;97701.16;;;1.45;66.99
75699;BME280;64313;51.018;13.742;2024-01-15T01:49:13;97693.28;;;1.45;67.00
75699;BME280;64313;51.018;13.742;2024-01-15T01:51:39;97696.13;;;1.44;67.18
75699;BME280;64313;51.018;13.742;2024-01-15T01:54:05;97706.63;;;1.44;67.14
75699;BME280;64313;51.018;13.742;2024-01-15T01:56:31;97707.63;;;1.43;66.80
75699;BME280;64313;51.018;13.742;2024-01-15T01:58:57;97717.34;;;1.42;66.50
75699;BME280;64313;51.018;13.742;2024-01-15T02:01:23;97729.63;;;1.42;66.53
75699;BME280;64313;51.018;13.742;2024-01-15T02:03:48;97726.19;;;1.41;66.61
75699;BME280;64313;51.018;13.742;2024-01-15T02:06:14;97708.00;;;1.40;66.25
75699;BME280;64313;51.018;13.742;2024-01-15T02:08:39;97723.56;;;1.41;66.80
75699;BME280;64313;51.018;13.742;2024-01-15T02:11:04;97706.19;;;1.40;66.53
75699;BME280;64313;51.018;13.742;2024-01-15T02:13:30;97700.13;;;1.40;66.47
75699;BME280;64313;51.018;13.742;2024-01-15T02:15:55;97712.47;;;1.39;65.79
75699;BME280;64313;51.018;13.742;2024-01-15T02:18:20;97711.44;;;1.40;65.75
75699;BME280;64313;51.018;13.742;2024-01-15T02:20:46;97705.38;;;1.40;65.95
75699;BME280;64313;51.018;13.742;2024-01-15T02:23:15;97697.72;;;1.38;66.34
75699;BME280;64313;51.018;13.742;2024-01-15T02:25:42;97700.13;;;1.40;65.70
75699;BME280;64313;51.018;13.742;2024-01-15T02:28:10;97703.78;;;1.39;66.08
75699;BME280;64313;51.018;13.742;2024-01-15T02:30:39;97697.91;;;1.37;66.11
75699;BME280;64313;51.018;13.742;2024-01-15T02:33:05;97692.66;;;1.37;65.74
75699;BME280;64313;51.018;13.742;2024-01-15T02:35:30;97692.03;;;1.34;65.90
75699;BME280;64313;51.018;13.742;2024-01-15T02:37:55;97690.41;;;1.33;65.75
75699;BME280;64313;51.018;13.742;2024-01-15T02:40:21;97697.69;;;1.31;66.20
75699;BME280;64313;51.018;13.742;2024-01-15T02:42:46;97690.84;;;1.30;65.82
75699;BME280;64313;51.018;13.742;2024-01-15T02:45:11;97684.56;;;1.31;66.02
75699;BME280;64313;51.018;13.742;2024-01-15T02:47:37;97681.50;;;1.28;65.87
75699;BME280;64313;51.018;13.742;2024-01-15T02:50:02;97677.28;;;1.27;66.71
75699;BME280;64313;51.018;13.742;2024-01-15T02:52:27;97663.34;;;1.26;66.20
75699;BME280;64313;51.018;13.742;2024-01-15T02:54:53;97671.44;;;1.25;66.38
75699;BME280;64313;51.018;13.742;2024-01-15T02:57:18;97673.84;;;1.26;65.85
75699;BME280;64313;51.018;13.742;2024-01-15T02:59:43;97673.25;;;1.24;66.31
75699;BME280;64313;51.018;13.742;2024-01-15T03:02:09;97669.81;;;1.24;65.75
75699;BME280;64313;51.018;13.742;2024-01-15T03:04:34;97677.06;;;1.22;65.85
75699;BME280;64313;51.018;13.742;2024-01-15T03:06:59;97662.94;;;1.23;66.34
75699;BME280;64313;51.018;13.742;2024-01-15T03:09:25;97664.72;;;1.22;66.30
75699;BME280;64313;51.018;13.742;2024-01-15T03:11:50;97657.88;;;1.21;65.99
75699;BME280;64313;51.018;13.742;2024-01-15T03:14:15;97652.63;;;1.21;66.56
75699;BME280;64313;51.018;13.742;2024-01-15T03:16:40;97655.25;;;1.21;65.45
75699;BME280;64313;51.018;13.742;2024-01-15T03:19:06;97654.66;;;1.19;65.61
75699;BME280;64313;51.018;13.742;2024-01-15T03:21:32;97657.28;;;1.19;66.00
75699;BME280;64313;51.018;13.742;2024-01-15T03:23:57;97661.13;;;1.17;65.58
75699;BME280;64313;51.018;13.742;2024-01-15T03:26:22;97655.88;;;1.17;65.72
75699;BME280;64313;51.018;13.742;2024-01-15T03:28:48;97651.59;;;1.16;66.22
75699;BME280;64313;51.018;13.742;2024-01-15T03:31:13;97658.66;;;1.15;65.66
75699;BME280;64313;51.018;13.742;2024-01-15T03:33:38;97643.91;;;1.14;65.60
75699;BME280;64313;51.018;13.742;2024-01-15T03:36:04;97656.44;;;1.12;65.72
75699;BME280;64313;51.018;13.742;2024-01-15T03:38:29;97661.69;;;1.12;65.22
75699;BME280;64313;51.018;13.742;2024-01-15T03:40:54;97662.72;;;1.11;65.32
75699;BME280;64313;51.018;13.742;2024-01-15T03:43:20;97670.59;;;1.11;65.21
75699;BME280;64313;51.018;13.742;2024-01-15T03:45:45;97666.72;;;1.07;65.32
75699;BME280;64313;51.018;13.742;2024-01-15T03:48:11;97677.22;;;1.07;65.32
75699;BME280;64313;51.018;13.742;2024-01-15T03:50:36;97677.44;;;1.05;66.03
75699;BME280;64313;51.018;13.742;2024-01-15T03:53:01;97667.31;;;1.02;65.71
75699;BME280;64313;51.018;13.742;2024-01-15T03:55:27;97667.72;;;0.99;65.42
75699;BME280;64313;51.018;13.742;2024-01-15T03:57:52;97680.03;;;0.99;66.20
75699;BME280;64313;51.018;13.742;2024-01-15T04:00:17;97678.59;;;0.96;66.31
75699;BME280;64313;51.018;13.742;2024-01-15T04:02:43;97679.44;;;0.97;66.60
75699;BME280;64313;51.018;13.742;2024-01-15T04:05:09;97677.97;;;0.94;66.12
75699;BME280;64313;51.018;13.742;2024-01-15T04:07:34;97675.34;;;0.94;67.05
75699;BME280;64313;51.018;13.742;2024-01-15T04:10:00;97677.59;;;0.91;66.77
75699;BME280;64313;51.018;13.742;2024-01-15T04:12:25;97678.75;;;0.88;66.63
75699;BME280;64313;51.018;13.742;2024-01-15T04:14:50;97674.53;;;0.87;67.17
75699;BME280;64313;51.018;13.742;2024-01-15T04:17:15;97669.47;;;0.86;67.10
75699;BME280;64313;51.018;13.742;2024-01-15T04:19:43;97668.84;;;0.84;66.95
75699;BME280;64313;51.018;13.742;2024-01-15T04:22:09;97675.09;;;0.82;67.34
75699;BME280;64313;51.018;13.742;2024-01-15T04:24:34;97673.69;;;0.80;66.79
75699;BME280;64313;51.018;13.742;2024-01-15T04:26:59;97651.09;;;0.79;66.96
75699;BME280;64313;51.018;13.742;2024-01-15T04:29:25;97646.22;;;0.76;66.51
75699;BME280;64313;51.018;13.742;2024-01-15T04:31:52;97652.28;;;0.76;66.73
75699;BME280;64313;51.018;13.742;2024-01-15T04:34:18;97654.09;;;0.76;66.63
75699;BME280;64313;51.018;13.742;2024-01-15T04:36:43;97648.25;;;0.74;66.81
75699;BME280;64313;51.018;13.742;2024-01-15T04:39:08;97663.16;;;0.73;66.44
75699;BME280;64313;51.018;13.742;2024-01-15T04:41:34;97661.34;;;0.74;66.58
75699;BME280;64313;51.018;13.742;2024-01-15T04:43:59;97657.91;;;0.73;66.02
75699;BME280;64313;51.018;13.742;2024-01-15T04:46:26;97645.81;;;0.72;66.37
75699;BME280;64313;51.018;13.742;2024-01-15T04:48:51;97647.63;;;0.72;66.52
75699;BME280;64313;51.018;13.742;2024-01-15T04:51:16;97648.81;;;0.69;65.87
75699;BME280;64313;51.018;13.742;2024-01-15T04:53:42;97661.94;;;0.69;65.89
75699;BME280;64313;51.018;13.742;2024-01-15T04:56:07;97662.13;;;0.68;65.64
75699;BME280;64313;51.018;13.742;2024-01-15T04:58:32;97670.19;;;0.66;65.62
75699;BME280;64313;51.018;13.742;2024-01-15T05:00:58;97669.41;;;0.66;66.12
75699;BME280;64313;51.018;13.742;2024-01-15T05:03:23;97666.94;;;0.64;66.06
75699;BME280;64313;51.018;13.742;2024-01-15T05:05:48;97662.53;;;0.65;65.37
75699;BME280;64313;51.018;13.742;2024-01-15T05:08:14;97658.47;;;0.62;65.61
75699;BME280;64313;51.018;13.742;2024-01-15T05:10:39;97667.34;;;0.61;65.30
75699;BME280;64313;51.018;13.742;2024-01-15T05:13:04;97672.00;;;0.59;65.29
75699;BME280;64313;51.018;13.742;2024-01-15T05:15:29;97672.78;;;0.60;65.49
75699;BME280;64313;51.018;13.742;2024-01-15T05:17:55;97671.34;;;0.57;65.77
75699;BME280;64313;51.018;13.742;2024-01-15T05:20:20;97671.56;;;0.56;66.12
75699;BME280;64313;51.018;13.742;2024-01-15T05:22:45;97664.69;;;0.54;65.71
75699;BME280;64313;51.018;13.742;2024-01-15T05:25:11;97677.19;;;0.52;66.26
75699;BME280;64313;51.018;13.742;2024-01-15T05:27:36;97683.06;;;0.54;65.98
75699;BME280;64313;51.018;13.742;2024-01-15T05:30:02;97675.38;;;0.53;65.49
75699;BME280;64313;51.018;13.742;2024-01-15T05:32:28;97673.78;;;0.52;66.04
75699;BME280;64313;51.018;13.742;2024-01-15T05:34:53;97674.75;;;0.51;65.98
75699;BME280;64313;51.018;13.742;2024-01-15T05:37:18;97658.41;;;0.49;66.18
75699;BME280;64313;51.018;13.742;2024-01-15T05:39:44;97669.91;;;0.48;65.73
75699;BME280;64313;51.018;13.742;2024-01-15T05:42:09;97665.03;;;0.45;65.73
75699;BME280;64313;51.018;13.742;2024-01-15T05:44:34;97669.66;;;0.43;65.33
75699;BME280;64313;51.018;13.742;2024-01-15T05:47:00;97673.91;;;0.44;65.63
75699;BME280;64313;51.018;13.742;2024-01-15T05:49:25;97662.81;;;0.42;65.76
75699;BME280;64313;51.018;13.742;2024-01-15T05:51:50;97674.31;;;0.41;65.48
75699;BME280;64313;51.018;13.742;2024-01-15T05:54:18;97670.88;;;0.40;65.61
75699;BME280;64313;51.018;13.742;2024-01-15T05:56:43;97677.13;;;0.39;65.60
75699;BME280;64313;51.018;13.742;2024-01-15T05:59:09;97676.50;;;0.37;65.40
75699;BME280;64313;51.018;13.742;2024-01-15T06:01:34;97679.31;;;0.36;65.29
75699;BME280;64313;51.018;13.742;2024-01-15T06:03:59;97677.69;;;0.35;65.65
75699;BME280;64313;51.018;13.742;2024-01-15T06:06:25;97687.19;;;0.36;65.55
75699;BME280;64313;51.018;13.742;2024-01-15T06:08:50;97674.28;;;0.34;65.22
75699;BME280;64313;51.018;13.742;2024-01-15T06:11:15;97677.69;;;0.35;65.10
75699;BME280;64313;51.018;13.742;2024-01-15T06:13:41;97670.84;;;0.34;64.82
75699;BME280;64313;51.018;13.742;2024-01-15T06:16:14;97669.84;;;0.35;64.86
75699;BME280;64313;51.018;13.742;2024-01-15T06:18:40;97664.78;;;0.33;64.79
75699;BME280;64313;51.018;13.742;2024-01-15T06:21:06;97668.22;;;0.34;65.12
75699;BME280;64313;51.018;13.742;2024-01-15T06:23:31;97673.63;;;0.32;64.93
75699;BME280;64313;51.018;13.742;2024-01-15T06:25:56;97662.16;;;0.33;64.63
75699;BME280;64313;51.018;13.742;2024-01-15T06:28:22;97647.25;;;0.34;65.22
75699;BME280;64313;51.018;13.742;2024-01-15T06:30:47;97638.56;;;0.33;64.71
75699;BME280;64313;51.018;13.742;2024-01-15T06:33:13;97646.00;;;0.30;64.27
75699;BME280;64313;51.018;13.742;2024-01-15T06:35:38;97645.19;;;0.29;64.39
75699;BME280;64313;51.018;13.742;2024-01-15T06:38:03;97652.84;;;0.31;64.01
75699;BME280;64313;51.018;13.742;2024-01-15T06:40:29;97647.59;;;0.31;64.47
75699;BME280;64313;51.018;13.742;2024-01-15T06:42:54;97656.47;;;0.30;64.50
75699;BME280;64313;51.018;13.742;2024-01-15T06:45:20;97664.34;;;0.30;64.70
75699;BME280;64313;51.018;13.742;2024-01-15T06:47:45;97655.88;;;0.28;63.86
75699;BME280;64313;51.018;13.742;2024-01-15T06:50:10;97672.81;;;0.32;63.92
75699;BME280;64313;51.018;13.742;2024-01-15T06:52:35;97676.25;;;0.32;64.01
75699;BME280;64313;51.018;13.742;2024-01-15T06:55:01;97666.59;;;0.33;63.96
75699;BME280;64313;51.018;13.742;2024-01-15T06:57:27;97647.25;;;0.34;63.80
75699;BME280;64313;51.018;13.742;2024-01-15T06:59:52;97653.91;;;0.36;64.14
75699;BME280;64313;51.018;13.742;2024-01-15T07:02:17;97661.75;;;0.36;63.92
75699;BME280;64313;51.018;13.742;2024-01-15T07:04:43;97656.72;;;0.35;63.98
75699;BME280;64313;51.018;13.742;2024-01-15T07:07:08;97655.72;;;0.36;64.15
75699;BME280;64313;51.018;13.742;2024-01-15T07:09:33;97667.22;;;0.35;63.95
75699;BME280;64313;51.018;13.742;2024-01-15T07:11:58;97642.00;;;0.34;63.96
75699;BME280;64313;51.018;13.742;2024-01-15T07:14:24;97664.78;;;0.33;64.00
75699;BME280;64313;51.018;13.742;2024-01-15T07:16:50;97647.59;;;0.31;64.17
75699;BME280;64313;51.018;13.742;2024-01-15T07:19:15;97663.13;;;0.32;63.55
75699;BME280;64313;51.018;13.742;2024-01-15T07:21:40;97673.63;;;0.32;63.80
75699;BME280;64313;51.018;13.742;2024-01-15T07:24:08;97682.34;;;0.33;63.67
75699;BME280;64313;51.018;13.742;2024-01-15T07:26:34;97684.13;;;0.32;63.59
75699;BME280;64313;51.018;13.742;2024-01-15T07:28:59;97683.13;;;0.33;63.35
75699;BME280;64313;51.018;13.742;2024-01-15T07:31:24;97701.50;;;0.33;63.36
75699;BME280;64313;51.018;13.742;2024-01-15T07:33:50;97708.53;;;0.33;63.59
75699;BME280;64313;51.018;13.742;2024-01-15T07:36:15;97711.78;;;0.35;64.00
75699;BME280;64313;51.018;13.742;2024-01-15T07:38:40;97714.41;;;0.35;63.87
75699;BME280;64313;51.018;13.742;2024-01-15T07:41:06;97705.53;;;0.36;63.72
75699;BME280;64313;51.018;13.742;2024-01-15T07:43:31;97720.25;;;0.37;64.09
75699;BME280;64313;51.018;13.742;2024-01-15T07:45:57;97702.72;;;0.37;64.13
75699;BME280;64313;51.018;13.742;2024-01-15T07:48:22;97701.91;;;0.37;64.25
75699;BME280;64313;51.018;13.742;2024-01-15T07:50:48;97716.63;;;0.38;64.04
75699;BME280;64313;51.018;13.742;2024-01-15T07:53:13;97689.44;;;0.39;63.43
75699;BME280;64313;51.018;13.742;2024-01-15T07:55:38;97695.66;;;0.38;63.83
75699;BME280;64313;51.018;13.742;2024-01-15T07:58:04;97686.97;;;0.37;63.59
75699;BME280;64313;51.018;13.742;2024-01-15T08:00:29;97691.22;;;0.38;63.63
75699;BME280;64313;51.018;13.742;2024-01-15T08:02:55;97693.03;;;0.38;63.57
75699;BME280;64313;51.018;13.742;2024-01-15T08:05:20;97684.34;;;0.37;63.71
75699;BME280;64313;51.018;13.742;2024-01-15T08:07:46;97688.78;;;0.37;63.36
75699;BME280;64313;51.018;13.742;2024-01-15T08:10:11;97688.41;;;0.40;63.94
75699;BME280;64313;51.018;13.742;2024-01-15T08:12:39;97696.91;;;0.42;63.30
75699;BME280;64313;51.018;13.742;2024-01-15T08:15:04;97696.69;;;0.43;63.00
75699;BME280;64313;51.018;13.742;2024-01-15T08:17:30;97687.00;;;0.44;63.15
75699;BME280;64313;51.018;13.742;2024-01-15T08:19:57;97693.88;;;0.45;63.10
75699;BME280;64313;51.018;13.742;2024-01-15T08:22:22;97703.38;;;0.46;62.79
75699;BME280;64313;51.018;13.742;2024-01-15T08:24:48;97695.53;;;0.46;62.64
75699;BME280;64313;51.018;13.742;2024-01-15T08:27:14;97706.00;;;0.46;63.50
75699;BME280;64313;51.018;13.742;2024-01-15T08:29:39;97704.00;;;0.48;62.96
75699;BME280;64313;51.018;13.742;2024-01-15T08:32:05;97688.25;;;0.48;62.74
75699;BME280;64313;51.018;13.742;2024-01-15T08:34:30;97700.38;;;0.49;62.90
75699;BME280;64313;51.018;13.742;2024-01-15T08:36:56;97698.56;;;0.49;62.57
75699;BME280;64313;51.018;13.742;2024-01-15T08:39:21;97694.91;;;0.50;62.92
75699;BME280;64313;51.018;13.742;2024-01-15T08:41:47;97704.41;;;0.51;62.43
75699;BME280;64313;51.018;13.742;2024-01-15T08:44:12;97703.44;;;0.52;63.19
75699;BME280;64313;51.018;13.742;2024-01-15T08:46:38;97710.28;;;0.53;62.71
75699;BME280;64313;51.018;13.742;2024-01-15T08:49:03;97717.16;;;0.54;62.59
75699;BME280;64313;51.018;13.742;2024-01-15T08:51:29;97704.03;;;0.54;62.71
75699;BME280;64313;51.018;13.742;2024-01-15T08:53:56;97711.09;;;0.54;62.47
75699;BME280;64313;51.018;13.742;2024-01-15T08:56:21;97707.66;;;0.53;62.80
75699;BME280;64313;51.018;13.742;2024-01-15T08:58:47;97706.47;;;0.56;62.80
75699;BME280;64313;51.018;13.742;2024-01-15T09:01:12;97692.16;;;0.59;62.55
75699;BME280;64313;51.018;13.742;2024-01-15T09:03:37;97707.69;;;0.60;62.65
75699;BME280;64313;51.018;13.742;2024-01-15T09:06:03;97718.59;;;0.64;62.47
75699;BME280;64313;51.018;13.742;2024-01-15T09:08:28;97714.16;;;0.64;62.20
75699;BME280;64313;51.018;13.742;2024-01-15T09:10:54;97722.88;;;0.65;62.14
75699;BME280;64313;51.018;13.742;2024-01-15T09:13:19;97710.34;;;0.67;61.88
75699;BME280;64313;51.018;13.742;2024-01-15T09:15:44;97702.91;;;0.70;61.83
75699;BME280;64313;51.018;13.742;2024-01-15T09:18:10;97718.06;;;0.75;62.07
75699;BME280;64313;51.018;13.742;2024-01-15T09:20:35;97719.91;;;0.81;61.78
75699;BME280;64313;51.018;13.742;2024-01-15T09:23:00;97721.75;;;0.87;61.55
75699;BME280;64313;51.018;13.742;2024-01-15T09:25:26;97713.09;;;0.93;61.48
75699;BME280;64313;51.018;13.742;2024-01-15T09:27:51;97716.16;;;0.97;60.27
75699;BME280;64313;51.018;13.742;2024-01-15T09:30:16;97694.75;;;1.00;60.34
75699;BME280;64313;51.018;13.742;2024-01-15T09:32:42;97709.13;;;1.04;60.45
75699;BME280;64313;51.018;13.742;2024-01-15T09:35:07;97699.03;;;1.07;59.94
75699;BME280;64313;51.018;13.742;2024-01-15T09:37:34;97722.44;;;1.09;60.13
75699;BME280;64313;51.018;13.742;2024-01-15T09:39:59;97728.72;;;1.08;60.29
75699;BME280;64313;51.018;13.742;2024-01-15T09:42:25;97709.72;;;1.06;60.27
75699;BME280;64313;51.018;13.742;2024-01-15T09:44:51;97702.88;;;1.05;60.76
75699;BME280;64313;51.018;13.742;2024-01-15T09:47:18;97722.44;;;1.09;60.39
75699;BME280;64313;51.018;13.742;2024-01-15T09:49:44;97714.41;;;1.11;60.20
75699;BME280;64313;51.018;13.742;2024-01-15T09:52:10;97720.25;;;1.13;60.45
75699;BME280;64313;51.018;13.742;2024-01-15T09:54:37;97701.69;;;1.14;59.52
75699;BME280;64313;51.018;13.742;2024-01-15T09:57:03;97722.09;;;1.19;60.09
75699;BME280;64313;51.018;13.742;2024-01-15T09:59:29;97709.38;;;1.22;59.99
75699;BME280;64313;51.018;13.742;2024-01-15T10:01:56;97705.56;;;1.25;59.91
75699;BME280;64313;51.018;13.742;2024-01-15T10:04:22;97705.97;;;1.28;59.25
75699;BME280;64313;51.018;13.742;2024-01-15T10:06:50;97691.84;;;1.29;59.25
75699;BME280;64313;51.018;13.742;2024-01-15T10:09:17;97705.78;;;1.30;59.14
75699;BME280;64313;51.018;13.742;2024-01-15T10:11:43;97699.09;;;1.27;59.41
75699;BME280;64313;51.018;13.742;2024-01-15T10:14:10;97717.47;;;1.27;59.45
75699;BME280;64313;51.018;13.742;2024-01-15T10:16:38;97695.84;;;1.25;59.14
75699;BME280;64313;51.018;13.742;2024-01-15T10:19:04;97695.06;;;1.25;59.41
75699;BME280;64313;51.018;13.742;2024-01-15T10:21:32;97696.06;;;1.24;58.92
75699;BME280;64313;51.018;13.742;2024-01-15T10:24:00;97671.22;;;1.26;59.57
75699;BME280;64313;51.018;13.742;2024-01-15T10:26:26;97687.19;;;1.31;59.49
75699;BME280;64313;51.018;13.742;2024-01-15T10:28:51;97684.97;;;1.35;59.46
75699;BME280;64313;51.018;13.742;2024-01-15T10:31:17;97659.34;;;1.37;58.54
75699;BME280;64313;51.018;13.742;2024-01-15T10:33:44;97681.75;;;1.40;58.52
75699;BME280;64313;51.018;13.742;2024-01-15T10:36:10;97678.13;;;1.41;58.93
75699;BME280;64313;51.018;13.742;2024-01-15T10:38:36;97683.78;;;1.44;58.93
75699;BME280;64313;51.018;13.742;2024-01-15T10:41:02;97687.44;;;1.50;59.22
75699;BME280;64313;51.018;13.742;2024-01-15T10:43:27;97680.75;;;1.54;58.98
75699;BME280;64313;51.018;13.742;2024-01-15T10:45:52;97686.66;;;1.56;58.11
75699;BME280;64313;51.018;13.742;2024-01-15T10:48:18;97694.13;;;1.59;58.58
75699;BME280;64313;51.018;13.742;2024-01-15T10:50:45;97682.00;;;1.58;57.60
75699;BME280;64313;51.018;13.742;2024-01-15T10:53:12;97679.97;;;1.60;57.81
75699;BME280;64313;51.018;13.742;2024-01-15T10:55:38;97683.59;;;1.59;58.25
75699;BME280;64313;51.018;13.742;2024-01-15T10:58:04;97689.88;;;1.58;57.83
75699;BME280;64313;51.018;13.742;2024-01-15T11:00:30;97687.25;;;1.58;57.93
75699;BME280;64313;51.018;13.742;2024-01-15T11:02:56;97669.44;;;1.60;57.95
75699;BME280;64313;51.018;13.742;2024-01-15T11:05:22;97683.22;;;1.62;58.15
75699;BME280;64313;51.018;13.742;2024-01-15T11:07:50;97694.94;;;1.66;57.68
75699;BME280;64313;51.018;13.742;2024-01-15T11:10:42;97684.03;;;1.69;57.79
75699;BME280;64313;51.018;13.742;2024-01-15T11:13:09;97683.22;;;1.69;57.45
75699;BME280;64313;51.018;13.742;2024-01-15T11:16:03;97682.00;;;1.71;57.68
75699;BME280;64313;51.018;13.742;2024-01-15T11:18:40;97685.22;;;1.73;57.42
75699;BME280;64313;51.018;13.742;2024-01-15T11:23:55;97686.88;;;1.81;57.32
75699;BME280;64313;51.018;13.742;2024-01-15T11:26:37;97680.19;;;1.85;57.26
75699;BME280;64313;51.018;13.742;2024-01-15T11:29:07;97658.94;;;1.86;57.19
75699;BME280;64313;51.018;13.742;2024-01-15T11:34:05;97670.31;;;1.87;57.38
75699;BME280;64313;51.018;13.742;2024-01-15T11:41:51;97650.25;;;1.86;57.60
75699;BME280;64313;51.018;13.742;2024-01-15T11:44:17;97662.41;;;1.87;57.25
75699;BME280;64313;51.018;13.742;2024-01-15T11:46:59;97658.94;;;1.86;57.24
75699;BME280;64313;51.018;13.742;2024-01-15T11:52:11;97639.94;;;1.91;57.67
75699;BME280;64313;51.018;13.742;2024-01-15T11:54:38;97637.13;;;1.93;57.75
75699;BME280;64313;51.018;13.742;2024-01-15T11:57:10;97655.13;;;1.96;57.31
75699;BME280;64313;51.018;13.742;2024-01-15T11:59:39;97633.09;;;1.97;57.22
75699;BME280;64313;51.018;13.742;2024-01-15T12:02:04;97641.56;;;1.99;57.49
75699;BME280;64313;51.018;13.742;2024-01-15T12:04:29;97643.38;;;1.98;56.93
75699;BME280;64313;51.018;13.742;2024-01-15T12:06:55;97649.66;;;1.97;57.31
75699;BME280;64313;51.018;13.742;2024-01-15T12:09:20;97639.94;;;1.98;57.17
75699;BME280;64313;51.018;13.742;2024-01-15T12:11:51;97649.66;;;1.97;56.69
75699;BME280;64313;51.018;13.742;2024-01-15T12:14:21;97658.56;;;1.96;57.39
75699;BME280;64313;51.018;13.742;2024-01-15T12:16:46;97655.50;;;1.93;57.84
75699;BME280;64313;51.018;13.742;2024-01-15T12:19:11;97670.47;;;1.92;58.32
75699;BME280;64313;51.018;13.742;2024-01-15T12:21:39;97641.78;;;1.90;58.62
75699;BME280;64313;51.018;13.742;2024-01-15T12:24:07;97652.50;;;1.89;58.74
75699;BME280;64313;51.018;13.742;2024-01-15T12:26:32;97658.16;;;1.86;59.07
75699;BME280;64313;51.018;13.742;2024-01-15T12:29:01;97656.53;;;1.85;59.38
75699;BME280;64313;51.018;13.742;2024-01-15T12:31:26;97662.81;;;1.84;59.67
75699;BME280;64313;51.018;13.742;2024-01-15T12:33:53;97656.53;;;1.85;59.90
75699;BME280;64313;51.018;13.742;2024-01-15T12:36:21;97653.53;;;1.81;60.10
75699;BME280;64313;51.018;13.742;2024-01-15T12:38:46;97644.81;;;1.81;60.49
75699;BME280;64313;51.018;13.742;2024-01-15T12:41:12;97642.19;;;1.81;60.50
75699;BME280;64313;51.018;13.742;2024-01-15T12:43:37;97656.31;;;1.80;60.56
75699;BME280;64313;51.018;13.742;2024-01-15T12:46:03;97648.66;;;1.78;60.36
75699;BME280;64313;51.018;13.742;2024-01-15T12:48:28;97652.88;;;1.79;61.27
75699;BME280;64313;51.018;13.742;2024-01-15T12:50:56;97665.84;;;1.74;61.88
75699;BME280;64313;51.018;13.742;2024-01-15T12:53:21;97659.75;;;1.74;62.16
75699;BME280;64313;51.018;13.742;2024-01-15T12:55:46;97644.00;;;1.74;62.15
75699;BME280;64313;51.018;13.742;2024-01-15T12:58:12;97658.34;;;1.71;62.67
75699;BME280;64313;51.018;13.742;2024-01-15T13:00:37;97647.63;;;1.66;63.00
75699;BME280;64313;51.018;13.742;2024-01-15T13:03:02;97658.16;;;1.66;63.65
75699;BME280;64313;51.018;13.742;2024-01-15T13:05:29;97648.06;;;1.63;64.15
75699;BME280;64313;51.018;13.742;2024-01-15T13:07:56;97658.94;;;1.60;64.27